Time;durP1;ratioP1;P1;durP2;ratioP2;P2;SDS_P1;SDS_P2;PMS_P1;PMS_P2;Temp;Humidity;BMP_temperature;BMP_pressure;BME280_temperature;BME280_humidity;BME280_pressure;Samples;Min_cycle;Max_cycle;Signal;HPM_P1;HPM_P2
2021/12/29 09:21:29;;;;;;;;;12.67;12.67;;;;;-144.69;100.00;61360.22;6174764;22;46578;-77
2021/12/29 09:23:55;;;;;;;;;11.67;8.67;;;;;-144.69;100.00;61360.22;6212632;22;45366;-77
2021/12/29 09:26:20;;;;;;;;;10.00;10.00;;;;;-144.69;100.00;61360.22;6211722;22;45454;-76
2021/12/29 09:28:48;;;;;;;;;10.67;9.67;;;;;-144.69;100.00;61360.22;6210723;22;45763;-76
2021/12/29 09:31:14;;;;;;;;;12.00;9.00;;;;;-144.69;100.00;61360.22;6212333;22;45359;-73
2021/12/29 09:33:41;;;;;;;;;10.00;7.00;;;;;-144.69;100.00;61360.22;6211815;22;45304;-74
2021/12/29 09:36:07;;;;;;;;;6.00;6.00;;;;;-144.69;100.00;61360.22;6211072;22;45264;-75
2021/12/29 09:38:35;;;;;;;;;12.33;7.00;;;;;-144.69;100.00;61360.22;6212004;22;45287;-75
2021/12/29 09:41:03;;;;;;;;;11.33;6.00;;;;;-144.69;100.00;61360.22;6212412;22;45197;-74
2021/12/29 09:43:29;;;;;;;;;8.33;6.00;;;;;-144.69;100.00;61360.22;6211743;22;45450;-73
2021/12/29 09:45:55;;;;;;;;;5.00;5.00;;;;;-144.69;100.00;61360.22;6212314;22;45204;-75
2021/12/29 09:48:21;;;;;;;;;9.33;4.67;;;;;-144.69;100.00;61360.22;6211902;22;45325;-74
2021/12/29 09:50:47;;;;;;;;;7.33;5.67;;;;;-144.69;100.00;61360.22;6211545;22;45283;-75
2021/12/29 09:53:13;;;;;;;;;7.00;5.33;;;;;-144.69;100.00;61360.22;6212276;22;45283;-74
2021/12/29 09:55:40;;;;;;;;;7.33;4.00;;;;;-144.69;100.00;61360.22;6212026;22;45343;-76
2021/12/29 09:58:06;;;;;;;;;6.00;5.00;;;;;-144.69;100.00;61360.22;6209894;22;48328;-75
2021/12/29 10:00:43;;;;;;;;;11.00;5.67;;;;;-144.69;100.00;61360.22;6211484;22;45387;-75
2021/12/29 10:03:11;;;;;;;;;6.00;4.67;;;;;-144.69;100.00;61360.22;6211716;22;45325;-75
2021/12/29 10:05:39;;;;;;;;;4.00;3.00;;;;;-144.69;100.00;61360.22;6211166;22;45261;-75
2021/12/29 10:08:08;;;;;;;;;6.00;3.00;;;;;-144.69;100.00;61360.22;6211516;22;46106;-76
2021/12/29 10:10:37;;;;;;;;;4.33;3.33;;;;;-144.69;100.00;61360.22;6212358;22;45313;-75
2021/12/29 10:13:03;;;;;;;;;7.67;4.33;;;;;-144.69;100.00;61360.22;6185281;22;45247;-75
2021/12/29 10:15:41;;;;;;;;;10.67;7.67;;;;;-144.69;100.00;61360.22;6211869;22;45449;-75
2021/12/29 10:18:20;;;;;;;;;4.33;4.33;;;;;-144.69;100.00;61360.22;6187372;22;45642;-76
2021/12/29 10:20:49;;;;;;;;;5.33;4.00;;;;;-144.69;100.00;61360.22;6211338;22;45367;-73
2021/12/29 10:23:19;;;;;;;;;5.67;5.67;;;;;-144.69;100.00;61360.22;6209506;22;45390;-75
2021/12/29 10:25:44;;;;;;;;;5.67;3.33;;;;;-144.69;100.00;61360.22;6211770;22;45180;-73
2021/12/29 10:28:26;;;;;;;;;5.33;2.67;;;;;-144.69;100.00;61360.22;6211077;22;46087;-75
2021/12/29 10:30:56;;;;;;;;;8.67;5.00;;;;;-144.69;100.00;61360.22;6212620;22;45236;-74
2021/12/29 10:33:21;;;;;;;;;5.33;3.67;;;;;-144.69;100.00;61360.22;6212449;22;45312;-74
2021/12/29 10:35:46;;;;;;;;;4.00;4.00;;;;;-144.69;100.00;61360.22;6211696;22;45247;-74
2021/12/29 10:38:17;;;;;;;;;6.00;4.00;;;;;-144.69;100.00;61360.22;6211740;22;46199;-74
2021/12/29 10:40:43;;;;;;;;;6.33;6.33;;;;;-144.69;100.00;61360.22;6212174;22;45391;-75
2021/12/29 10:43:09;;;;;;;;;7.67;5.00;;;;;-144.69;100.00;61360.22;6212317;22;45406;-74
2021/12/29 10:45:43;;;;;;;;;5.67;5.67;;;;;-144.69;100.00;61360.22;6212213;22;45347;-74
2021/12/29 10:48:21;;;;;;;;;9.00;7.33;;;;;-144.69;100.00;61360.22;6212111;22;46318;-74
2021/12/29 10:50:56;;;;;;;;;13.00;9.67;;;;;-144.69;100.00;61360.22;6211760;22;45362;-75
2021/12/29 10:53:22;;;;;;;;;10.67;10.67;;;;;-144.69;100.00;61360.22;6184480;22;45415;-73
2021/12/29 10:55:48;;;;;;;;;10.00;10.00;;;;;-144.69;100.00;61360.22;6211855;22;45242;-73
2021/12/29 10:58:19;;;;;;;;;10.67;9.33;;;;;-144.69;100.00;61360.22;6212247;22;45279;-73
2021/12/29 11:00:48;;;;;;;;;15.00;11.33;;;;;-144.69;100.00;61360.22;6212244;22;45347;-73
2021/12/29 11:03:17;;;;;;;;;11.00;9.67;;;;;-144.69;100.00;61360.22;6212518;22;45174;-73
2021/12/29 11:05:47;;;;;;;;;14.33;10.67;;;;;-144.69;100.00;61360.22;6212132;22;45299;-74
2021/12/29 11:08:14;;;;;;;;;6.67;5.00;;;;;-144.69;100.00;61360.22;6184288;22;46217;-74
2021/12/29 11:10:41;;;;;;;;;6.00;6.00;;;;;-144.69;100.00;61360.22;6211869;22;45682;-75
2021/12/29 11:13:07;;;;;;;;;13.00;11.00;;;;;-144.69;100.00;61360.22;6211131;22;45318;-75
2021/12/29 11:15:39;;;;;;;;;11.67;9.67;;;;;-144.69;100.00;61360.22;6211123;22;45283;-74
2021/12/29 11:18:11;;;;;;;;;8.67;8.67;;;;;-144.69;100.00;61360.22;6211660;22;46127;-75
2021/12/29 11:20:39;;;;;;;;;11.00;10.33;;;;;-144.69;100.00;61360.22;6211742;22;45328;-73
2021/12/29 11:23:14;;;;;;;;;7.33;7.33;;;;;-144.69;100.00;61360.22;6210742;22;45356;-73
2021/12/29 11:25:42;;;;;;;;;12.67;10.67;;;;;-144.69;100.00;61360.22;6212002;22;45318;-74
2021/12/29 11:28:21;;;;;;;;;13.67;9.33;;;;;-144.69;100.00;61360.22;6211620;22;46235;-75
2021/12/29 11:30:47;;;;;;;;;12.00;8.33;;;;;-144.69;100.00;61360.22;6211372;22;45244;-74
2021/12/29 11:33:13;;;;;;;;;8.33;6.00;;;;;-144.69;100.00;61360.22;6211934;22;45292;-74
2021/12/29 11:35:44;;;;;;;;;6.67;6.67;;;;;-144.69;100.00;61360.22;6211535;22;45320;-74
2021/12/29 11:38:11;;;;;;;;;5.67;5.67;;;;;-144.69;100.00;61360.22;6211343;22;46277;-74
2021/12/29 11:40:45;;;;;;;;;11.33;6.33;;;;;-144.69;100.00;61360.22;6211908;22;45438;-75
2021/12/29 11:43:12;;;;;;;;;9.00;6.00;;;;;-144.69;100.00;61360.22;6212109;22;45265;-74
2021/12/29 11:45:39;;;;;;;;;6.00;6.00;;;;;-144.69;100.00;61360.22;6211817;22;45423;-73
2021/12/29 11:48:06;;;;;;;;;7.33;6.00;;;;;-144.69;100.00;61360.22;6211815;22;46082;-73
2021/12/29 11:50:35;;;;;;;;;7.00;6.00;;;;;-144.69;100.00;61360.22;6211064;22;45307;-73
2021/12/29 11:53:31;;;;;;;;;8.67;8.67;;;;;-144.69;100.00;61360.22;6211312;22;45355;-74
2021/12/29 11:56:06;;;;;;;;;7.33;7.33;;;;;-144.69;100.00;61360.22;6211116;22;45379;-73
2021/12/29 11:58:35;;;;;;;;;8.00;6.00;;;;;-144.69;100.00;61360.22;6211851;22;45369;-74
2021/12/29 12:01:17;;;;;;;;;6.67;4.67;;;;;-144.69;100.00;61360.22;6209937;22;45199;-72
2021/12/29 12:03:47;;;;;;;;;10.67;6.67;;;;;-144.69;100.00;61360.22;6209587;22;45146;-74
2021/12/29 12:06:22;;;;;;;;;8.67;8.33;;;;;-144.69;100.00;61360.22;6210809;22;45359;-74
2021/12/29 12:08:48;;;;;;;;;8.00;6.33;;;;;-144.69;100.00;61360.22;6211415;22;46417;-72
2021/12/29 12:11:27;;;;;;;;;7.67;7.67;;;;;-144.69;100.00;61360.22;6184047;22;45446;-73
2021/12/29 12:13:54;;;;;;;;;8.00;8.00;;;;;-144.69;100.00;61360.22;6184197;22;45408;-74
2021/12/29 12:16:20;;;;;;;;;11.00;6.00;;;;;-144.69;100.00;61360.22;6211713;22;45360;-73
2021/12/29 12:18:50;;;;;;;;;9.33;7.67;;;;;-144.69;100.00;61360.22;6208862;22;45459;-73
2021/12/29 12:21:34;;;;;;;;;10.00;8.00;;;;;-144.69;100.00;61360.22;6210519;22;45375;-74
2021/12/29 12:24:15;;;;;;;;;8.33;7.67;;;;;-144.69;100.00;61360.22;6211820;22;45324;-74
2021/12/29 12:26:57;;;;;;;;;6.00;6.00;;;;;-144.69;100.00;61360.22;6211187;22;45261;-76
2021/12/29 12:29:25;;;;;;;;;6.33;6.00;;;;;-144.69;100.00;61360.22;6211415;22;45278;-75
2021/12/29 12:32:05;;;;;;;;;5.67;5.67;;;;;-144.69;100.00;61360.22;6210761;22;45296;-76
2021/12/29 12:34:31;;;;;;;;;8.67;7.00;;;;;-144.69;100.00;61360.22;6211839;22;45389;-72
2021/12/29 12:36:59;;;;;;;;;5.67;5.67;;;;;-144.69;100.00;61360.22;6210903;22;45380;-75
2021/12/29 12:39:27;;;;;;;;;5.33;5.33;;;;;-144.69;100.00;61360.22;6208973;22;46512;-72
2021/12/29 12:41:58;;;;;;;;;7.33;6.67;;;;;-144.69;100.00;61360.22;6211758;22;45254;-74
2021/12/29 12:44:33;;;;;;;;;1.00;0.33;;;;;-144.69;100.00;61360.22;6211695;22;45380;-74
2021/12/29 12:47:12;;;;;;;;;8.67;7.00;;;;;-144.69;100.00;61360.22;6211519;22;45251;-73
2021/12/29 12:49:46;;;;;;;;;8.00;8.00;;;;;-144.69;100.00;61360.22;6183792;22;45393;-74
2021/12/29 12:52:13;;;;;;;;;6.67;5.33;;;;;-144.69;100.00;61360.22;6211458;22;45151;-74
2021/12/29 12:54:55;;;;;;;;;8.00;6.33;;;;;-144.69;100.00;61360.22;6210933;22;45348;-73
2021/12/29 12:57:40;;;;;;;;;4.00;4.00;;;;;-144.69;100.00;61360.22;6210638;22;45247;-73
2021/12/29 13:00:06;;;;;;;;;6.00;5.67;;;;;-144.69;100.00;61360.22;6211356;22;45317;-74
2021/12/29 13:02:47;;;;;;;;;6.67;5.00;;;;;-144.69;100.00;61360.22;6210788;22;45427;-74
2021/12/29 13:05:18;;;;;;;;;9.00;6.00;;;;;-144.69;100.00;61360.22;6210819;22;45283;-74
2021/12/29 13:07:52;;;;;;;;;4.33;4.33;;;;;-144.69;100.00;61360.22;6210930;22;45446;-74
2021/12/29 13:10:25;;;;;;;;;5.33;5.33;;;;;-144.69;100.00;61360.22;6210078;22;45257;-73
2021/12/29 13:12:57;;;;;;;;;7.00;7.00;;;;;-144.69;100.00;61360.22;6183865;22;45316;-74
2021/12/29 13:15:23;;;;;;;;;6.67;5.33;;;;;-144.69;100.00;61360.22;6211713;22;45352;-73
2021/12/29 13:17:48;;;;;;;;;8.33;6.00;;;;;-144.69;100.00;61360.22;6210732;22;45339;-74
2021/12/29 13:20:15;;;;;;;;;5.00;5.00;;;;;-144.69;100.00;61360.22;6210513;22;46263;-74
2021/12/29 13:22:42;;;;;;;;;6.33;6.33;;;;;-144.69;100.00;61360.22;6210471;22;45233;-74
2021/12/29 13:25:11;;;;;;;;;5.00;5.00;;;;;-144.69;100.00;61360.22;6210750;22;45484;-74
2021/12/29 13:27:38;;;;;;;;;6.00;6.00;;;;;-144.69;100.00;61360.22;6211121;22;45395;-75
2021/12/29 13:30:09;;;;;;;;;5.00;5.00;;;;;-144.69;100.00;61360.22;6210866;22;45856;-74
2021/12/29 13:32:34;;;;;;;;;8.00;6.33;;;;;-144.69;100.00;61360.22;6183587;22;45890;-74
2021/12/29 13:35:06;;;;;;;;;8.00;6.00;;;;;-144.69;100.00;61360.22;6209095;22;45438;-74
2021/12/29 13:37:32;;;;;;;;;9.67;6.00;;;;;-144.69;100.00;61360.22;6210876;22;45235;-74
2021/12/29 13:39:59;;;;;;;;;5.00;5.00;;;;;-144.69;100.00;61360.22;6210893;22;45976;-73
2021/12/29 13:42:26;;;;;;;;;6.00;6.00;;;;;-144.69;100.00;61360.22;6210740;22;45387;-73
2021/12/29 13:44:54;;;;;;;;;6.00;5.67;;;;;-144.69;100.00;61360.22;6211131;22;45294;-73
2021/12/29 13:47:23;;;;;;;;;5.00;5.00;;;;;-144.69;100.00;61360.22;6211054;22;45287;-73
2021/12/29 13:49:50;;;;;;;;;5.67;5.00;;;;;-144.69;100.00;61360.22;6210747;22;45300;-73
2021/12/29 13:52:15;;;;;;;;;4.00;4.00;;;;;-144.69;100.00;61360.22;6208979;22;45410;-74
2021/12/29 13:54:41;;;;;;;;;4.00;4.00;;;;;-144.69;100.00;61360.22;6211041;22;45362;-72
2021/12/29 13:57:08;;;;;;;;;1.33;1.33;;;;;-144.69;100.00;61360.22;6210088;22;45392;-73
2021/12/29 13:59:33;;;;;;;;;4.00;3.00;;;;;-144.69;100.00;61360.22;6211235;22;45436;-75
2021/12/29 14:02:02;;;;;;;;;1.67;1.67;;;;;-144.69;100.00;61360.22;6212368;22;45188;-74
2021/12/29 14:04:36;;;;;;;;;2.00;2.00;;;;;-144.69;100.00;61360.22;6212590;22;45353;-74
2021/12/29 14:07:05;;;;;;;;;2.00;1.00;;;;;-144.69;100.00;61360.22;6211618;22;45277;-74
2021/12/29 14:09:33;;;;;;;;;1.00;1.00;;;;;-144.69;100.00;61360.22;6211523;22;45337;-75
2021/12/29 14:12:15;;;;;;;;;1.33;1.00;;;;;-144.69;100.00;61360.22;6209982;22;45641;-74
2021/12/29 14:14:42;;;;;;;;;1.00;1.00;;;;;-144.69;100.00;61360.22;6212384;22;45331;-75
2021/12/29 14:17:18;;;;;;;;;2.00;1.00;;;;;-144.69;100.00;61360.22;6212287;22;45410;-74
2021/12/29 14:19:45;;;;;;;;;2.33;0.67;;;;;-144.69;100.00;61360.22;6184033;22;47903;-74
2021/12/29 14:22:28;;;;;;;;;1.00;1.00;;;;;-144.69;100.00;61360.22;6211895;22;45361;-74
2021/12/29 14:24:53;;;;;;;;;0.00;0.00;;;;;-144.69;100.00;61360.22;6212426;22;45244;-74
2021/12/29 14:27:24;;;;;;;;;0.00;0.00;;;;;-144.69;100.00;61360.22;6211113;22;45328;-74
2021/12/29 14:29:50;;;;;;;;;1.00;1.00;;;;;-144.69;100.00;61360.22;6211551;22;46417;-72
2021/12/29 14:32:18;;;;;;;;;1.00;0.67;;;;;-144.69;100.00;61360.22;6212250;22;45307;-75
2021/12/29 14:34:45;;;;;;;;;2.00;0.00;;;;;-144.69;100.00;61360.22;6211970;22;45307;-74
2021/12/29 14:37:15;;;;;;;;;1.00;1.00;;;;;-144.69;100.00;61360.22;6211430;22;45439;-73
2021/12/29 14:39:42;;;;;;;;;2.00;1.67;;;;;-144.69;100.00;61360.22;6211523;22;45402;-74
2021/12/29 14:42:16;;;;;;;;;0.00;0.00;;;;;-144.69;100.00;61360.22;6212032;22;45402;-74
2021/12/29 14:44:55;;;;;;;;;1.67;1.67;;;;;-144.69;100.00;61360.22;6211422;22;45292;-74
2021/12/29 14:47:21;;;;;;;;;0.00;0.00;;;;;-144.69;100.00;61360.22;6211355;22;45400;-75
2021/12/29 14:49:56;;;;;;;;;0.00;0.00;;;;;-144.69;100.00;61360.22;6210630;22;45397;-74
2021/12/29 14:52:22;;;;;;;;;0.67;0.67;;;;;-144.69;100.00;61360.22;6211503;22;45305;-74
2021/12/29 14:54:55;;;;;;;;;0.00;0.00;;;;;-144.69;100.00;61360.22;6211693;22;45419;-75
2021/12/29 14:57:32;;;;;;;;;0.33;0.33;;;;;-144.69;100.00;61360.22;6185788;22;45351;-75
2021/12/29 15:00:13;;;;;;;;;0.67;0.67;;;;;-144.69;100.00;61360.22;6186063;22;46421;-74
2021/12/29 15:02:40;;;;;;;;;1.33;1.00;;;;;-144.69;100.00;61360.22;6210543;22;45279;-75
2021/12/29 15:05:13;;;;;;;;;2.67;0.33;;;;;-144.69;100.00;61360.22;6213235;22;45141;-76
2021/12/29 15:07:40;;;;;;;;;0.00;0.00;;;;;-144.69;100.00;61360.22;6185334;22;45505;-74
2021/12/29 15:10:08;;;;;;;;;3.67;0.00;;;;;-144.69;100.00;61360.22;6212023;22;45208;-74
2021/12/29 15:12:37;;;;;;;;;0.00;0.00;;;;;-144.69;100.00;61360.22;6211979;22;45372;-75
2021/12/29 15:15:13;;;;;;;;;0.00;0.00;;;;;-144.69;100.00;61360.22;6212495;22;45188;-75
2021/12/29 15:17:38;;;;;;;;;1.67;1.00;;;;;-144.69;100.00;61360.22;6212023;22;45162;-75
2021/12/29 15:20:06;;;;;;;;;1.67;1.00;;;;;-144.69;100.00;61360.22;6211151;22;45702;-74
2021/12/29 15:22:32;;;;;;;;;2.67;2.00;;;;;-144.69;100.00;61360.22;6211674;22;45173;-74
2021/12/29 15:24:58;;;;;;;;;2.00;2.00;;;;;-144.69;100.00;61360.22;6211991;22;45232;-74
2021/12/29 15:27:24;;;;;;;;;1.00;1.00;;;;;-144.69;100.00;61360.22;6211770;22;45414;-74
2021/12/29 15:29:49;;;;;;;;;1.00;0.00;;;;;-144.69;100.00;61360.22;6211658;22;45948;-75
2021/12/29 15:32:15;;;;;;;;;3.00;2.00;;;;;-144.69;100.00;61360.22;6211771;22;45289;-73
2021/12/29 15:34:41;;;;;;;;;2.00;2.00;;;;;-144.69;100.00;61360.22;6212078;22;45254;-75
2021/12/29 15:37:06;;;;;;;;;3.00;2.00;;;;;-144.69;100.00;61360.22;6211170;22;45316;-76
2021/12/29 15:39:32;;;;;;;;;4.00;2.67;;;;;-144.69;100.00;61360.22;6211731;22;45280;-75
2021/12/29 15:41:58;;;;;;;;;3.33;3.33;;;;;-144.69;100.00;61360.22;6211952;22;45304;-74
2021/12/29 15:44:24;;;;;;;;;5.33;3.33;;;;;-144.69;100.00;61360.22;6211965;22;45204;-72
2021/12/29 15:46:50;;;;;;;;;2.00;1.00;;;;;-144.69;100.00;61360.22;6211987;22;45327;-75
2021/12/29 15:49:15;;;;;;;;;4.67;3.00;;;;;-144.69;100.00;61360.22;6210933;22;46517;-75
2021/12/29 15:51:41;;;;;;;;;2.33;2.33;;;;;-144.69;100.00;61360.22;6211995;22;45405;-74
2021/12/29 15:54:07;;;;;;;;;4.33;3.00;;;;;-144.69;100.00;61360.22;6211700;22;45392;-74
2021/12/29 15:56:32;;;;;;;;;4.33;3.00;;;;;-144.69;100.00;61360.22;6212018;22;45300;-72
2021/12/29 15:58:58;;;;;;;;;4.67;2.33;;;;;-144.69;100.00;61360.22;6211221;22;45297;-76
2021/12/29 16:01:25;;;;;;;;;2.00;2.00;;;;;-144.69;100.00;61360.22;6210955;22;45350;-75
2021/12/29 16:03:52;;;;;;;;;1.00;1.00;;;;;-144.69;100.00;61360.22;6209722;22;45396;-72
2021/12/29 16:06:19;;;;;;;;;3.00;3.00;;;;;-144.69;100.00;61360.22;6210886;22;45225;-76
2021/12/29 16:08:45;;;;;;;;;3.67;1.67;;;;;-144.69;100.00;61360.22;6210892;22;45383;-74
2021/12/29 16:11:11;;;;;;;;;4.00;2.00;;;;;-144.69;100.00;61360.22;6211725;22;45273;-74
2021/12/29 16:13:36;;;;;;;;;5.67;2.00;;;;;-144.69;100.00;61360.22;6211607;22;45331;-74
2021/12/29 16:16:02;;;;;;;;;6.33;3.33;;;;;-144.69;100.00;61360.22;6184417;22;46060;-76
2021/12/29 16:18:28;;;;;;;;;5.00;2.00;;;;;-144.69;100.00;61360.22;6210846;22;45326;-74
2021/12/29 16:20:53;;;;;;;;;3.33;2.00;;;;;-144.69;100.00;61360.22;6211619;22;45307;-74
2021/12/29 16:23:18;;;;;;;;;1.33;1.00;;;;;-144.69;100.00;61360.22;6210175;22;45480;-76
2021/12/29 16:25:44;;;;;;;;;3.00;3.00;;;;;-144.69;100.00;61360.22;6211233;22;45415;-76
2021/12/29 16:28:10;;;;;;;;;1.00;1.00;;;;;-144.69;100.00;61360.22;6211540;22;46166;-73
2021/12/29 16:30:38;;;;;;;;;5.67;3.00;;;;;-144.69;100.00;61360.22;6183944;22;45317;-73
2021/12/29 16:33:04;;;;;;;;;3.00;2.00;;;;;-144.69;100.00;61360.22;6211353;22;45324;-74
2021/12/29 16:35:29;;;;;;;;;1.67;0.67;;;;;-144.69;100.00;61360.22;6211626;22;45166;-75
2021/12/29 16:37:55;;;;;;;;;2.00;2.00;;;;;-144.69;100.00;61360.22;6211390;22;45370;-73
2021/12/29 16:40:23;;;;;;;;;2.00;2.00;;;;;-144.69;100.00;61360.22;6210569;22;45273;-74
2021/12/29 16:42:49;;;;;;;;;3.00;3.00;;;;;-144.69;100.00;61360.22;6211626;22;45387;-75
2021/12/29 16:45:16;;;;;;;;;2.33;2.33;;;;;-144.69;100.00;61360.22;6210615;22;45374;-74
2021/12/29 16:47:42;;;;;;;;;3.00;2.33;;;;;-144.69;100.00;61360.22;6211268;22;45502;-75
2021/12/29 16:50:10;;;;;;;;;3.00;1.67;;;;;-144.69;100.00;61360.22;6211339;22;45259;-73
2021/12/29 16:52:36;;;;;;;;;1.00;1.00;;;;;-144.69;100.00;61360.22;6184375;22;45308;-74
2021/12/29 16:55:05;;;;;;;;;10.67;4.00;;;;;-144.69;100.00;61360.22;6211202;22;45292;-73
2021/12/29 16:57:30;;;;;;;;;2.00;2.00;;;;;-144.69;100.00;61360.22;6210486;22;47234;-74
2021/12/29 16:59:56;;;;;;;;;2.00;2.00;;;;;-144.69;100.00;61360.22;6211419;22;45343;-74
2021/12/29 17:02:21;;;;;;;;;1.00;1.00;;;;;-144.69;100.00;61360.22;6211119;22;45352;-75
2021/12/29 17:04:46;;;;;;;;;5.67;3.00;;;;;-144.69;100.00;61360.22;6211052;22;45417;-75
2021/12/29 17:07:12;;;;;;;;;6.33;3.00;;;;;-144.69;100.00;61360.22;6210887;22;45335;-74
2021/12/29 17:09:37;;;;;;;;;5.33;2.67;;;;;-144.69;100.00;61360.22;6210987;22;45335;-73
2021/12/29 17:12:04;;;;;;;;;5.33;5.33;;;;;-144.69;100.00;61360.22;6211562;22;45412;-75
2021/12/29 17:14:29;;;;;;;;;8.00;3.67;;;;;-144.69;100.00;61360.22;6209173;22;45347;-75
2021/12/29 17:16:55;;;;;;;;;7.67;4.00;;;;;-144.69;100.00;61360.22;6210953;22;46403;-74
2021/12/29 17:19:20;;;;;;;;;4.67;4.67;;;;;-144.69;100.00;61360.22;6211167;22;45297;-74
2021/12/29 17:21:46;;;;;;;;;5.00;3.00;;;;;-144.69;100.00;61360.22;6211181;22;45277;-74
2021/12/29 17:24:12;;;;;;;;;9.67;5.67;;;;;-144.69;100.00;61360.22;6211181;22;45373;-73
2021/12/29 17:26:38;;;;;;;;;9.67;6.33;;;;;-144.69;100.00;61360.22;6210704;22;45944;-73
2021/12/29 17:29:08;;;;;;;;;9.33;6.00;;;;;-144.69;100.00;61360.22;6210210;22;45423;-74
2021/12/29 17:31:33;;;;;;;;;12.33;8.67;;;;;-144.69;100.00;61360.22;6209100;22;45362;-75
2021/12/29 17:34:00;;;;;;;;;7.00;5.00;;;;;-144.69;100.00;61360.22;6211120;22;45188;-74
2021/12/29 17:36:26;;;;;;;;;11.00;8.50;;;;;-144.69;100.00;61360.22;6209863;22;46618;-74
2021/12/29 17:38:51;;;;;;;;;9.00;7.00;;;;;-144.69;100.00;61360.22;6212245;22;45336;-73
2021/12/29 17:41:18;;;;;;;;;7.33;6.00;;;;;-144.69;100.00;61360.22;6211932;22;45206;-73
2021/12/29 17:43:43;;;;;;;;;9.50;5.00;;;;;-144.69;100.00;61360.22;6211625;22;45323;-73
2021/12/29 17:46:09;;;;;;;;;7.33;3.33;;;;;-144.69;100.00;61360.22;6184396;22;47087;-72
2021/12/29 17:48:35;;;;;;;;;13.33;4.67;;;;;-144.69;100.00;61360.22;6211310;22;45352;-73
2021/12/29 17:51:02;;;;;;;;;9.00;7.00;;;;;-144.69;100.00;61360.22;6211676;22;45354;-74
2021/12/29 17:53:27;;;;;;;;;15.67;7.67;;;;;-144.69;100.00;61360.22;6211316;22;45311;-73
2021/12/29 17:55:54;;;;;;;;;3.33;2.33;;;;;-144.69;100.00;61360.22;6211651;22;46232;-74
2021/12/29 17:58:20;;;;;;;;;8.33;7.33;;;;;-144.69;100.00;61360.22;6212067;22;45137;-74
2021/12/29 18:00:47;;;;;;;;;11.67;8.67;;;;;-144.69;100.00;61360.22;6212213;22;45267;-74
2021/12/29 18:03:12;;;;;;;;;10.00;7.00;;;;;-144.69;100.00;61360.22;6184808;22;46150;-76
2021/12/29 18:05:38;;;;;;;;;7.33;5.33;;;;;-144.69;100.00;61360.22;6212054;22;46647;-73
2021/12/29 18:08:04;;;;;;;;;13.33;7.00;;;;;-144.69;100.00;61360.22;6212185;22;45226;-73
2021/12/29 18:10:30;;;;;;;;;14.00;9.00;;;;;-144.69;100.00;61360.22;6184564;22;45293;-73
2021/12/29 18:12:57;;;;;;;;;10.67;8.00;;;;;-144.69;100.00;61360.22;6211959;22;45383;-73
2021/12/29 18:15:24;;;;;;;;;7.67;7.67;;;;;-144.69;100.00;61360.22;6211771;22;45348;-74
2021/12/29 18:17:49;;;;;;;;;11.67;10.00;;;;;-144.69;100.00;61360.22;6211226;22;45300;-73
2021/12/29 18:20:20;;;;;;;;;12.33;8.33;;;;;-144.69;100.00;61360.22;6229264;22;45279;-73
2021/12/29 18:22:46;;;;;;;;;9.00;6.33;;;;;-144.69;100.00;61360.22;6256380;22;8781;-75
2021/12/29 18:25:14;;;;;;;;;14.33;11.00;;;;;-144.69;100.00;61360.22;6256511;22;8823;-74
2021/12/29 18:27:40;;;;;;;;;9.00;5.50;;;;;-144.69;100.00;61360.22;6254943;22;26377;-74
2021/12/29 18:30:08;;;;;;;;;11.67;9.33;;;;;-144.69;100.00;61360.22;6256603;22;8766;-73
2021/12/29 18:32:33;;;;;;;;;12.50;9.00;;;;;-144.69;100.00;61360.22;6256030;22;8958;-73
2021/12/29 18:34:59;;;;;;;;;6.67;5.33;;;;;-144.69;100.00;61360.22;6247929;22;27693;-72
2021/12/29 18:37:28;;;;;;;;;9.67;9.67;;;;;-144.69;100.00;61360.22;6254405;22;26422;-74
2021/12/29 18:39:55;;;;;;;;;12.67;7.67;;;;;-144.69;100.00;61360.22;6251450;22;26500;-73
2021/12/29 18:42:21;;;;;;;;;7.00;3.00;;;;;-144.69;100.00;61360.22;6250423;22;27919;-74
2021/12/29 18:44:51;;;;;;;;;17.67;11.67;;;;;-144.69;100.00;61360.22;6248756;22;27809;-75
2021/12/29 18:47:20;;;;;;;;;11.67;7.67;;;;;-144.69;100.00;61360.22;6248458;22;27942;-74
2021/12/29 18:49:46;;;;;;;;;14.67;8.33;;;;;-144.69;100.00;61360.22;6252883;22;28347;-74
2021/12/29 18:52:12;;;;;;;;;9.33;7.00;;;;;-144.69;100.00;61360.22;6248048;22;27796;-73
2021/12/29 18:54:38;;;;;;;;;8.67;6.00;;;;;-144.69;100.00;61360.22;6252452;22;28302;-74
2021/12/29 18:57:03;;;;;;;;;10.33;9.00;;;;;-144.69;100.00;61360.22;6221364;22;27634;-72
2021/12/29 18:59:29;;;;;;;;;14.67;11.67;;;;;-144.69;100.00;61360.22;6244369;22;27835;-73
2021/12/29 19:01:55;;;;;;;;;14.67;9.67;;;;;-144.69;100.00;61360.22;6249541;22;27684;-75
2021/12/29 19:04:24;;;;;;;;;13.67;10.00;;;;;-144.69;100.00;61360.22;6251380;22;27229;-74
2021/12/29 19:06:50;;;;;;;;;10.00;7.00;;;;;-144.69;100.00;61360.22;6252932;22;27983;-76
2021/12/29 19:09:18;;;;;;;;;16.33;7.33;;;;;-144.69;100.00;61360.22;6253569;22;27007;-78
2021/12/29 19:11:46;;;;;;;;;7.33;7.33;;;;;-144.69;100.00;61360.22;6250656;22;28035;-74
2021/12/29 19:14:12;;;;;;;;;12.67;7.00;;;;;-144.69;100.00;61360.22;6245045;22;28409;-74
2021/12/29 19:16:38;;;;;;;;;11.00;8.00;;;;;-144.69;100.00;61360.22;6239054;22;28390;-73
2021/12/29 19:19:05;;;;;;;;;9.67;5.00;;;;;-144.69;100.00;61360.22;6238407;22;28240;-73
2021/12/29 19:21:30;;;;;;;;;16.33;11.00;;;;;-144.69;100.00;61360.22;6238281;22;28379;-74
2021/12/29 19:23:56;;;;;;;;;12.33;7.67;;;;;-144.69;100.00;61360.22;6222489;22;27724;-74
2021/12/29 19:26:22;;;;;;;;;10.67;7.67;;;;;-144.69;100.00;61360.22;6254533;22;26479;-73
2021/12/29 19:28:48;;;;;;;;;6.00;5.00;;;;;-144.69;100.00;61360.22;6256341;22;8800;-72
2021/12/29 19:31:14;;;;;;;;;12.00;8.00;;;;;-144.69;100.00;61360.22;6245377;22;28238;-74
2021/12/29 19:33:39;;;;;;;;;7.33;4.00;;;;;-144.69;100.00;61360.22;6240087;22;28373;-77
2021/12/29 19:36:06;;;;;;;;;12.00;6.00;;;;;-144.69;100.00;61360.22;6235704;22;27847;-72
2021/12/29 19:38:32;;;;;;;;;12.00;7.67;;;;;-144.69;100.00;61360.22;6243360;22;28526;-73
2021/12/29 19:40:59;;;;;;;;;6.33;6.33;;;;;-144.69;100.00;61360.22;6255341;22;10106;-73
2021/12/29 19:43:25;;;;;;;;;6.50;6.00;;;;;-144.69;100.00;61360.22;6255417;22;23979;-72
2021/12/29 19:45:51;;;;;;;;;13.75;10.50;;;;;-144.69;100.00;61360.22;6255200;22;27864;-72
2021/12/29 19:48:16;;;;;;;;;9.00;6.00;;;;;-144.69;100.00;61360.22;6255851;22;8796;-72
2021/12/29 19:50:43;;;;;;;;;10.33;6.00;;;;;-144.69;100.00;61360.22;6248660;22;27160;-74
2021/12/29 19:53:11;;;;;;;;;7.00;6.33;;;;;-144.69;100.00;61360.22;6250178;22;28437;-73
2021/12/29 19:55:40;;;;;;;;;8.67;7.67;;;;;-144.69;100.00;61360.22;6243953;22;27827;-74
2021/12/29 19:58:06;;;;;;;;;14.00;9.00;;;;;-144.69;100.00;61360.22;6247184;22;28343;-74
2021/12/29 20:00:35;;;;;;;;;17.00;10.00;;;;;-144.69;100.00;61360.22;6247690;22;28210;-72
2021/12/29 20:03:00;;;;;;;;;14.67;11.00;;;;;-144.69;100.00;61360.22;6247085;22;27777;-73
2021/12/29 20:05:26;;;;;;;;;17.67;12.00;;;;;-144.69;100.00;61360.22;6245601;22;28433;-73
2021/12/29 20:07:58;;;;;;;;;12.67;9.67;;;;;-144.69;100.00;61360.22;6241423;22;28502;-74
2021/12/29 20:10:26;;;;;;;;;9.00;6.00;;;;;-144.69;100.00;61360.22;6250158;22;27707;-74
2021/12/29 20:12:52;;;;;;;;;11.00;6.00;;;;;-144.69;100.00;61360.22;6244420;22;28343;-73
2021/12/29 20:15:19;;;;;;;;;14.67;10.00;;;;;-144.69;100.00;61360.22;6241446;22;28422;-72
2021/12/29 20:17:46;;;;;;;;;13.67;11.67;;;;;-144.69;100.00;61360.22;6243729;22;28378;-76
2021/12/29 20:20:14;;;;;;;;;11.00;6.67;;;;;-144.69;100.00;61360.22;6238049;22;27750;-73
2021/12/29 20:22:39;;;;;;;;;8.67;5.67;;;;;-144.69;100.00;61360.22;6242501;22;28096;-72
2021/12/29 20:25:07;;;;;;;;;10.67;9.00;;;;;-144.69;100.00;61360.22;6239201;22;28331;-72
2021/12/29 20:27:34;;;;;;;;;7.33;4.00;;;;;-144.69;100.00;61360.22;6215409;22;27741;-75
2021/12/29 20:30:08;;;;;;;;;9.33;6.67;;;;;-144.69;100.00;61360.22;6245472;22;27718;-73
2021/12/29 20:32:34;;;;;;;;;17.67;10.67;;;;;-144.69;100.00;61360.22;6240634;22;27989;-74